sensor_id;sensor_type;location;lat;lon;timestamp;pressure;altitude;pressure_sealevel;temperature;humidity
14269;BME280;7218;51.480;7.006;2022-07-23T00:01:35;101090.00;;;21.00;100.00
14269;BME280;7218;51.480;7.006;2022-07-23T00:04:02;101102.34;;;21.01;100.00
14269;BME280;7218;51.480;7.006;2022-07-23T00:06:28;101081.03;;;21.03;100.00
14269;BME280;7218;51.480;7.006;2022-07-23T00:08:55;101085.06;;;20.93;100.00
14269;BME280;7218;51.480;7.006;2022-07-23T00:11:22;101085.81;;;20.78;100.00
14269;BME280;7218;51.480;7.006;2022-07-23T00:13:53;101091.28;;;20.75;100.00
14269;BME280;7218;51.480;7.006;2022-07-23T00:16:20;101097.44;;;20.75;100.00
14269;BME280;7218;51.480;7.006;2022-07-23T00:18:46;101099.53;;;20.69;100.00
14269;BME280;7218;51.480;7.006;2022-07-23T00:21:13;101093.69;;;20.62;100.00
14269;BME280;7218;51.480;7.006;2022-07-23T00:23:40;101086.88;;;20.56;100.00
14269;BME280;7218;51.480;7.006;2022-07-23T00:26:06;101087.75;;;20.57;100.00
14269;BME280;7218;51.480;7.006;2022-07-23T00:28:34;101089.44;;;20.58;100.00
14269;BME280;7218;51.480;7.006;2022-07-23T00:31:01;101092.03;;;20.59;100.00
14269;BME280;7218;51.480;7.006;2022-07-23T00:33:28;101088.00;;;20.70;100.00
14269;BME280;7218;51.480;7.006;2022-07-23T00:35:54;101085.13;;;20.74;100.00
14269;BME280;7218;51.480;7.006;2022-07-23T00:38:21;101080.75;;;20.73;100.00
14269;BME280;7218;51.480;7.006;2022-07-23T00:40:47;101075.13;;;20.62;100.00
14269;BME280;7218;51.480;7.006;2022-07-23T00:43:14;101072.59;;;20.59;100.00
14269;BME280;7218;51.480;7.006;2022-07-23T00:45:42;101077.13;;;20.57;100.00
14269;BME280;7218;51.480;7.006;2022-07-23T00:48:09;101072.38;;;20.63;100.00
14269;BME280;7218;51.480;7.006;2022-07-23T00:50:52;101077.56;;;20.67;100.00
14269;BME280;7218;51.480;7.006;2022-07-23T00:53:35;101077.41;;;20.70;100.00
14269;BME280;7218;51.480;7.006;2022-07-23T00:59:58;101081.69;;;20.53;100.00
14269;BME280;7218;51.480;7.006;2022-07-23T01:02:27;101078.41;;;20.48;100.00
14269;BME280;7218;51.480;7.006;2022-07-23T01:04:54;101082.00;;;20.47;100.00
14269;BME280;7218;51.480;7.006;2022-07-23T01:07:22;101090.03;;;20.46;100.00
14269;BME280;7218;51.480;7.006;2022-07-23T01:09:49;101086.75;;;20.41;100.00
14269;BME280;7218;51.480;7.006;2022-07-23T01:12:16;101089.91;;;20.29;100.00
14269;BME280;7218;51.480;7.006;2022-07-23T01:14:42;101087.38;;;20.27;100.00
14269;BME280;7218;51.480;7.006;2022-07-23T01:17:09;101088.88;;;20.33;100.00
14269;BME280;7218;51.480;7.006;2022-07-23T01:19:37;101082.84;;;20.29;100.00
14269;BME280;7218;51.480;7.006;2022-07-23T01:22:03;101088.28;;;20.26;100.00
14269;BME280;7218;51.480;7.006;2022-07-23T01:24:32;101083.91;;;20.25;100.00
14269;BME280;7218;51.480;7.006;2022-07-23T01:26:58;101087.19;;;20.32;100.00
14269;BME280;7218;51.480;7.006;2022-07-23T01:29:25;101086.59;;;20.44;100.00
14269;BME280;7218;51.480;7.006;2022-07-23T01:31:51;101088.16;;;20.48;100.00
14269;BME280;7218;51.480;7.006;2022-07-23T01:34:18;101088.78;;;20.53;100.00
14269;BME280;7218;51.480;7.006;2022-07-23T01:36:44;101079.28;;;20.49;100.00
14269;BME280;7218;51.480;7.006;2022-07-23T01:39:12;101091.53;;;20.51;100.00
14269;BME280;7218;51.480;7.006;2022-07-23T01:41:40;101075.44;;;20.37;100.00
14269;BME280;7218;51.480;7.006;2022-07-23T01:44:06;101078.22;;;20.34;100.00
14269;BME280;7218;51.480;7.006;2022-07-23T01:46:33;101083.16;;;20.42;100.00
14269;BME280;7218;51.480;7.006;2022-07-23T01:49:00;101074.84;;;20.49;100.00
14269;BME280;7218;51.480;7.006;2022-07-23T01:51:27;101069.69;;;20.46;100.00
14269;BME280;7218;51.480;7.006;2022-07-23T01:53:53;101066.25;;;20.44;100.00
14269;BME280;7218;51.480;7.006;2022-07-23T01:56:19;101060.53;;;20.35;100.00
14269;BME280;7218;51.480;7.006;2022-07-23T01:58:48;101063.88;;;20.38;100.00
14269;BME280;7218;51.480;7.006;2022-07-23T02:01:14;101068.66;;;20.30;100.00
14269;BME280;7218;51.480;7.006;2022-07-23T02:03:41;101069.59;;;20.29;100.00
14269;BME280;7218;51.480;7.006;2022-07-23T02:06:08;101071.28;;;20.32;100.00
14269;BME280;7218;51.480;7.006;2022-07-23T02:08:34;101069.56;;;20.31;100.00
14269;BME280;7218;51.480;7.006;2022-07-23T02:11:01;101078.22;;;20.34;100.00
14269;BME280;7218;51.480;7.006;2022-07-23T02:13:27;101065.44;;;20.42;100.00
14269;BME280;7218;51.480;7.006;2022-07-23T02:15:56;101064.19;;;20.51;100.00
14269;BME280;7218;51.480;7.006;2022-07-23T02:18:22;101064.84;;;20.37;100.00
14269;BME280;7218;51.480;7.006;2022-07-23T02:20:49;101065.53;;;20.22;100.00
14269;BME280;7218;51.480;7.006;2022-07-23T02:23:15;101062.34;;;20.14;100.00
14269;BME280;7218;51.480;7.006;2022-07-23T02:25:42;101060.13;;;20.05;100.00
14269;BME280;7218;51.480;7.006;2022-07-23T02:28:08;101061.06;;;20.04;100.00
14269;BME280;7218;51.480;7.006;2022-07-23T02:30:35;101064.94;;;19.97;100.00
14269;BME280;7218;51.480;7.006;2022-07-23T02:33:04;101066.56;;;19.99;100.00
14269;BME280;7218;51.480;7.006;2022-07-23T02:35:30;101070.50;;;19.91;100.00
14269;BME280;7218;51.480;7.006;2022-07-23T02:37:57;101067.38;;;20.01;100.00
14269;BME280;7218;51.480;7.006;2022-07-23T02:40:24;101073.09;;;20.11;100.00
14269;BME280;7218;51.480;7.006;2022-07-23T02:42:50;101071.38;;;20.10;100.00
14269;BME280;7218;51.480;7.006;2022-07-23T02:45:17;101062.94;;;20.02;100.00
14269;BME280;7218;51.480;7.006;2022-07-23T02:47:43;101072.94;;;19.95;100.00
14269;BME280;7218;51.480;7.006;2022-07-23T02:50:11;101063.22;;;19.96;100.00
14269;BME280;7218;51.480;7.006;2022-07-23T02:52:38;101061.88;;;20.06;100.00
14269;BME280;7218;51.480;7.006;2022-07-23T02:55:05;101068.94;;;19.87;100.00
14269;BME280;7218;51.480;7.006;2022-07-23T02:57:32;101071.69;;;19.84;100.00
14269;BME280;7218;51.480;7.006;2022-07-23T02:59:59;101072.56;;;19.84;100.00
14269;BME280;7218;51.480;7.006;2022-07-23T03:02:25;101067.47;;;19.80;100.00
14269;BME280;7218;51.480;7.006;2022-07-23T03:04:52;101066.81;;;19.74;100.00
14269;BME280;7218;51.480;7.006;2022-07-23T03:07:20;101065.03;;;19.75;100.00
14269;BME280;7218;51.480;7.006;2022-07-23T03:09:46;101070.25;;;19.76;100.00
14269;BME280;7218;51.480;7.006;2022-07-23T03:12:13;101067.63;;;19.76;100.00
14269;BME280;7218;51.480;7.006;2022-07-23T03:14:40;101064.31;;;19.71;100.00
14269;BME280;7218;51.480;7.006;2022-07-23T03:17:07;101071.34;;;19.72;100.00
14269;BME280;7218;51.480;7.006;2022-07-23T03:19:33;101059.44;;;19.62;100.00
14269;BME280;7218;51.480;7.006;2022-07-23T03:22:00;101058.84;;;19.56;100.00
14269;BME280;7218;51.480;7.006;2022-07-23T03:24:28;101049.38;;;19.50;100.00
14269;BME280;7218;51.480;7.006;2022-07-23T03:27:14;101059.94;;;19.30;100.00
14269;BME280;7218;51.480;7.006;2022-07-23T03:29:41;101056.56;;;19.26;100.00
14269;BME280;7218;51.480;7.006;2022-07-23T03:32:07;101062.44;;;19.33;100.00
14269;BME280;7218;51.480;7.006;2022-07-23T03:34:42;101060.13;;;19.25;100.00
14269;BME280;7218;51.480;7.006;2022-07-23T03:37:23;101057.69;;;19.21;100.00
14269;BME280;7218;51.480;7.006;2022-07-23T03:39:51;101059.88;;;19.11;100.00
14269;BME280;7218;51.480;7.006;2022-07-23T03:42:18;101060.84;;;19.09;100.00
14269;BME280;7218;51.480;7.006;2022-07-23T03:44:44;101068.91;;;19.06;100.00
14269;BME280;7218;51.480;7.006;2022-07-23T03:47:11;101061.84;;;19.06;100.00
14269;BME280;7218;51.480;7.006;2022-07-23T03:49:37;101066.66;;;18.97;100.00
14269;BME280;7218;51.480;7.006;2022-07-23T03:52:04;101075.56;;;18.94;100.00
14269;BME280;7218;51.480;7.006;2022-07-23T03:54:31;101066.69;;;18.95;100.00
14269;BME280;7218;51.480;7.006;2022-07-23T03:56:59;101073.00;;;18.92;100.00
14269;BME280;7218;51.480;7.006;2022-07-23T03:59:25;101074.44;;;19.00;100.00
14269;BME280;7218;51.480;7.006;2022-07-23T04:01:52;101074.44;;;19.00;100.00
14269;BME280;7218;51.480;7.006;2022-07-23T04:04:18;101073.81;;;18.93;100.00
14269;BME280;7218;51.480;7.006;2022-07-23T04:06:45;101077.75;;;19.05;100.00
14269;BME280;7218;51.480;7.006;2022-07-23T04:09:11;101079.53;;;19.04;100.00
14269;BME280;7218;51.480;7.006;2022-07-23T04:11:38;101086.25;;;18.91;100.00
14269;BME280;7218;51.480;7.006;2022-07-23T04:14:06;101078.38;;;18.89;100.00
14269;BME280;7218;51.480;7.006;2022-07-23T04:16:33;101083.88;;;18.85;100.00
14269;BME280;7218;51.480;7.006;2022-07-23T04:18:59;101083.91;;;18.83;100.00
14269;BME280;7218;51.480;7.006;2022-07-23T04:21:26;101086.38;;;18.88;100.00
14269;BME280;7218;51.480;7.006;2022-07-23T04:23:52;101092.41;;;18.91;100.00
14269;BME280;7218;51.480;7.006;2022-07-23T04:26:19;101089.09;;;18.86;100.00
14269;BME280;7218;51.480;7.006;2022-07-23T04:28:46;101092.66;;;18.85;100.00
14269;BME280;7218;51.480;7.006;2022-07-23T04:31:14;101087.13;;;18.91;100.00
14269;BME280;7218;51.480;7.006;2022-07-23T04:33:41;101087.91;;;18.93;100.00
14269;BME280;7218;51.480;7.006;2022-07-23T04:36:07;101092.31;;;18.93;100.00
14269;BME280;7218;51.480;7.006;2022-07-23T04:38:34;101094.91;;;18.95;100.00
14269;BME280;7218;51.480;7.006;2022-07-23T04:41:00;101097.69;;;18.91;100.00
14269;BME280;7218;51.480;7.006;2022-07-23T04:43:27;101101.78;;;18.99;100.00
14269;BME280;7218;51.480;7.006;2022-07-23T04:45:54;101109.72;;;18.99;100.00
14269;BME280;7218;51.480;7.006;2022-07-23T04:48:21;101102.75;;;18.98;100.00
14269;BME280;7218;51.480;7.006;2022-07-23T04:50:48;101109.72;;;18.99;100.00
14269;BME280;7218;51.480;7.006;2022-07-23T04:53:15;101106.88;;;19.03;100.00
14269;BME280;7218;51.480;7.006;2022-07-23T04:55:43;101102.47;;;19.04;100.00
14269;BME280;7218;51.480;7.006;2022-07-23T04:58:09;101108.78;;;19.21;100.00
14269;BME280;7218;51.480;7.006;2022-07-23T05:00:36;101105.53;;;19.15;100.00
14269;BME280;7218;51.480;7.006;2022-07-23T05:03:02;101100.97;;;19.18;100.00
14269;BME280;7218;51.480;7.006;2022-07-23T05:05:30;101105.94;;;19.26;100.00
14269;BME280;7218;51.480;7.006;2022-07-23T05:07:57;101116.53;;;19.26;100.00
14269;BME280;7218;51.480;7.006;2022-07-23T05:10:23;101117.41;;;19.26;100.00
14269;BME280;7218;51.480;7.006;2022-07-23T05:12:50;101129.81;;;19.24;100.00
14269;BME280;7218;51.480;7.006;2022-07-23T05:15:16;101128.66;;;19.31;100.00
14269;BME280;7218;51.480;7.006;2022-07-23T05:17:43;101126.66;;;19.37;100.00
14269;BME280;7218;51.480;7.006;2022-07-23T05:20:10;101122.78;;;19.45;100.00
14269;BME280;7218;51.480;7.006;2022-07-23T05:22:38;101120.75;;;19.52;100.00
14269;BME280;7218;51.480;7.006;2022-07-23T05:25:05;101122.00;;;19.63;100.00
14269;BME280;7218;51.480;7.006;2022-07-23T05:27:32;101123.53;;;19.69;100.00
14269;BME280;7218;51.480;7.006;2022-07-23T05:29:58;101127.50;;;19.79;100.00
14269;BME280;7218;51.480;7.006;2022-07-23T05:32:25;101126.31;;;19.86;100.00
14269;BME280;7218;51.480;7.006;2022-07-23T05:34:51;101133.66;;;19.80;100.00
14269;BME280;7218;51.480;7.006;2022-07-23T05:37:18;101131.00;;;19.80;100.00
14269;BME280;7218;51.480;7.006;2022-07-23T05:39:46;101133.31;;;19.87;100.00
14269;BME280;7218;51.480;7.006;2022-07-23T05:42:12;101149.56;;;19.78;100.00
14269;BME280;7218;51.480;7.006;2022-07-23T05:44:39;101148.81;;;19.76;100.00
14269;BME280;7218;51.480;7.006;2022-07-23T05:47:05;101148.53;;;19.82;100.00
14269;BME280;7218;51.480;7.006;2022-07-23T05:49:32;101148.47;;;19.84;100.00
14269;BME280;7218;51.480;7.006;2022-07-23T05:51:58;101146.66;;;19.84;100.00
14269;BME280;7218;51.480;7.006;2022-07-23T05:54:25;101143.50;;;19.76;100.00
14269;BME280;7218;51.480;7.006;2022-07-23T05:56:52;101159.91;;;19.84;100.00
14269;BME280;7218;51.480;7.006;2022-07-23T05:59:19;101141.72;;;19.97;100.00
14269;BME280;7218;51.480;7.006;2022-07-23T06:01:45;101146.25;;;19.93;100.00
14269;BME280;7218;51.480;7.006;2022-07-23T06:04:12;101150.97;;;20.07;100.00
14269;BME280;7218;51.480;7.006;2022-07-23T06:06:39;101146.81;;;20.01;100.00
14269;BME280;7218;51.480;7.006;2022-07-23T06:09:05;101151.75;;;20.09;100.00
14269;BME280;7218;51.480;7.006;2022-07-23T06:11:31;101148.56;;;20.21;100.00
14269;BME280;7218;51.480;7.006;2022-07-23T06:13:59;101151.69;;;20.29;100.00
14269;BME280;7218;51.480;7.006;2022-07-23T06:16:26;101140.72;;;20.38;100.00
14269;BME280;7218;51.480;7.006;2022-07-23T06:18:52;101142.28;;;20.42;100.00
14269;BME280;7218;51.480;7.006;2022-07-23T06:21:19;101151.75;;;20.48;100.00
14269;BME280;7218;51.480;7.006;2022-07-23T06:23:45;101155.78;;;20.56;100.00
14269;BME280;7218;51.480;7.006;2022-07-23T06:26:12;101156.44;;;20.61;100.00
14269;BME280;7218;51.480;7.006;2022-07-23T06:28:39;101161.78;;;20.60;100.00
14269;BME280;7218;51.480;7.006;2022-07-23T06:31:07;101170.00;;;20.73;100.00
14269;BME280;7218;51.480;7.006;2022-07-23T06:33:33;101165.00;;;20.85;100.00
14269;BME280;7218;51.480;7.006;2022-07-23T06:36:00;101168.41;;;20.87;100.00
14269;BME280;7218;51.480;7.006;2022-07-23T06:38:26;101162.91;;;20.73;100.00
14269;BME280;7218;51.480;7.006;2022-07-23T06:40:53;101166.88;;;20.65;100.00
14269;BME280;7218;51.480;7.006;2022-07-23T06:43:19;101165.72;;;20.70;100.00
14269;BME280;7218;51.480;7.006;2022-07-23T06:45:46;101168.16;;;20.75;100.00
14269;BME280;7218;51.480;7.006;2022-07-23T06:48:13;101172.75;;;20.90;100.00
14269;BME280;7218;51.480;7.006;2022-07-23T06:50:40;101170.88;;;20.92;100.00
14269;BME280;7218;51.480;7.006;2022-07-23T06:53:07;101174.59;;;20.88;100.00
14269;BME280;7218;51.480;7.006;2022-07-23T06:55:33;101175.16;;;20.94;100.00
14269;BME280;7218;51.480;7.006;2022-07-23T06:58:03;101178.22;;;21.04;97.94
14269;BME280;7218;51.480;7.006;2022-07-23T07:00:30;101175.09;;;21.15;97.28
14269;BME280;7218;51.480;7.006;2022-07-23T07:02:57;101173.88;;;21.39;96.86
14269;BME280;7218;51.480;7.006;2022-07-23T07:05:25;101182.47;;;21.44;96.42
14269;BME280;7218;51.480;7.006;2022-07-23T07:07:52;101175.13;;;21.49;96.78
14269;BME280;7218;51.480;7.006;2022-07-23T07:10:20;101179.22;;;21.56;96.74
14269;BME280;7218;51.480;7.006;2022-07-23T07:12:47;101179.44;;;21.69;97.42
14269;BME280;7218;51.480;7.006;2022-07-23T07:15:13;101184.13;;;21.81;97.20
14269;BME280;7218;51.480;7.006;2022-07-23T07:17:40;101182.41;;;21.80;95.06
14269;BME280;7218;51.480;7.006;2022-07-23T07:20:08;101177.31;;;21.92;94.84
14269;BME280;7218;51.480;7.006;2022-07-23T07:22:36;101184.06;;;22.00;92.45
14269;BME280;7218;51.480;7.006;2022-07-23T07:25:03;101178.19;;;22.10;93.05
14269;BME280;7218;51.480;7.006;2022-07-23T07:27:30;101179.75;;;21.97;91.07
14269;BME280;7218;51.480;7.006;2022-07-23T07:29:57;101187.91;;;21.94;91.11
14269;BME280;7218;51.480;7.006;2022-07-23T07:32:23;101187.34;;;22.05;89.07
14269;BME280;7218;51.480;7.006;2022-07-23T07:34:50;101191.69;;;22.23;90.12
14269;BME280;7218;51.480;7.006;2022-07-23T07:37:17;101191.03;;;22.35;90.10
14269;BME280;7218;51.480;7.006;2022-07-23T07:39:45;101184.88;;;22.17;85.99
14269;BME280;7218;51.480;7.006;2022-07-23T07:42:11;101201.22;;;21.92;86.62
14269;BME280;7218;51.480;7.006;2022-07-23T07:44:38;101196.78;;;21.59;87.51
14269;BME280;7218;51.480;7.006;2022-07-23T07:47:04;101200.81;;;21.48;88.41
14269;BME280;7218;51.480;7.006;2022-07-23T07:49:31;101195.53;;;21.83;87.83
14269;BME280;7218;51.480;7.006;2022-07-23T07:51:58;101199.38;;;21.95;87.33
14269;BME280;7218;51.480;7.006;2022-07-23T07:54:24;101198.72;;;22.07;86.30
14269;BME280;7218;51.480;7.006;2022-07-23T07:56:52;101203.22;;;22.06;84.33
14269;BME280;7218;51.480;7.006;2022-07-23T07:59:19;101212.69;;;22.27;84.43
14269;BME280;7218;51.480;7.006;2022-07-23T08:01:45;101214.84;;;22.37;83.41
14269;BME280;7218;51.480;7.006;2022-07-23T08:04:12;101215.94;;;22.50;83.97
14269;BME280;7218;51.480;7.006;2022-07-23T08:06:38;101210.13;;;22.59;82.84
14269;BME280;7218;51.480;7.006;2022-07-23T08:09:05;101216.38;;;22.58;79.41
14269;BME280;7218;51.480;7.006;2022-07-23T08:11:31;101221.78;;;22.56;79.33
14269;BME280;7218;51.480;7.006;2022-07-23T08:13:59;101232.28;;;22.42;80.19
14269;BME280;7218;51.480;7.006;2022-07-23T08:16:26;101230.66;;;22.40;79.46
14269;BME280;7218;51.480;7.006;2022-07-23T08:18:52;101225.34;;;22.22;80.94
14269;BME280;7218;51.480;7.006;2022-07-23T08:21:19;101225.25;;;22.41;79.51
14269;BME280;7218;51.480;7.006;2022-07-23T08:23:46;101223.59;;;22.56;78.68
14269;BME280;7218;51.480;7.006;2022-07-23T08:26:12;101230.97;;;22.66;79.30
14269;BME280;7218;51.480;7.006;2022-07-23T08:28:39;101235.16;;;22.55;75.66
14269;BME280;7218;51.480;7.006;2022-07-23T08:31:06;101226.06;;;22.59;72.43
14269;BME280;7218;51.480;7.006;2022-07-23T08:33:33;101236.09;;;22.71;74.58
14269;BME280;7218;51.480;7.006;2022-07-23T08:36:00;101235.75;;;22.60;75.46
14269;BME280;7218;51.480;7.006;2022-07-23T08:38:28;101235.66;;;22.28;75.48
14269;BME280;7218;51.480;7.006;2022-07-23T08:40:56;101229.00;;;22.70;74.03
14269;BME280;7218;51.480;7.006;2022-07-23T08:43:24;101227.78;;;23.08;74.24
14269;BME280;7218;51.480;7.006;2022-07-23T08:45:53;101236.94;;;23.18;72.89
14269;BME280;7218;51.480;7.006;2022-07-23T08:48:24;101228.28;;;23.31;71.72
14269;BME280;7218;51.480;7.006;2022-07-23T08:50:53;101236.69;;;23.39;69.51
14269;BME280;7218;51.480;7.006;2022-07-23T08:53:21;101225.97;;;23.56;69.06
14269;BME280;7218;51.480;7.006;2022-07-23T08:55:49;101227.50;;;23.60;69.73
14269;BME280;7218;51.480;7.006;2022-07-23T08:58:17;101232.97;;;23.57;70.88
14269;BME280;7218;51.480;7.006;2022-07-23T09:00:44;101238.19;;;23.74;67.75
14269;BME280;7218;51.480;7.006;2022-07-23T09:03:15;101238.50;;;23.54;67.47
14269;BME280;7218;51.480;7.006;2022-07-23T09:05:44;101239.31;;;23.70;67.45
14269;BME280;7218;51.480;7.006;2022-07-23T09:08:12;101242.38;;;23.48;66.68
14269;BME280;7218;51.480;7.006;2022-07-23T09:10:51;101238.69;;;23.81;63.88
14269;BME280;7218;51.480;7.006;2022-07-23T09:13:26;101247.34;;;23.84;64.44
14269;BME280;7218;51.480;7.006;2022-07-23T09:15:54;101245.44;;;23.86;65.20
14269;BME280;7218;51.480;7.006;2022-07-23T09:18:34;101245.13;;;24.07;65.79
14269;BME280;7218;51.480;7.006;2022-07-23T09:21:09;101250.91;;;24.29;62.17
14269;BME280;7218;51.480;7.006;2022-07-23T09:23:40;101247.50;;;24.55;61.04
14269;BME280;7218;51.480;7.006;2022-07-23T09:26:34;101239.22;;;24.88;60.62
14269;BME280;7218;51.480;7.006;2022-07-23T09:29:07;101242.06;;;25.26;59.16
14269;BME280;7218;51.480;7.006;2022-07-23T09:31:43;101241.53;;;25.21;57.46
14269;BME280;7218;51.480;7.006;2022-07-23T09:34:12;101242.47;;;25.34;59.03
14269;BME280;7218;51.480;7.006;2022-07-23T09:36:40;101241.28;;;25.38;56.44
14269;BME280;7218;51.480;7.006;2022-07-23T09:39:08;101237.25;;;25.72;57.16
14269;BME280;7218;51.480;7.006;2022-07-23T09:41:40;101240.31;;;25.93;56.18
14269;BME280;7218;51.480;7.006;2022-07-23T09:44:12;101241.19;;;26.19;57.14
14269;BME280;7218;51.480;7.006;2022-07-23T09:46:39;101253.22;;;26.38;56.58
14269;BME280;7218;51.480;7.006;2022-07-23T09:49:12;101244.16;;;25.89;53.30
14269;BME280;7218;51.480;7.006;2022-07-23T09:51:45;101239.97;;;25.85;54.36
14269;BME280;7218;51.480;7.006;2022-07-23T09:54:24;101245.19;;;25.20;53.41
14269;BME280;7218;51.480;7.006;2022-07-23T09:56:52;101241.59;;;25.60;53.03
14269;BME280;7218;51.480;7.006;2022-07-23T09:59:23;101236.84;;;25.51;53.65
14269;BME280;7218;51.480;7.006;2022-07-23T10:01:52;101241.88;;;26.22;53.21
14269;BME280;7218;51.480;7.006;2022-07-23T10:04:19;101237.28;;;26.49;51.55
14269;BME280;7218;51.480;7.006;2022-07-23T10:06:51;101246.47;;;26.58;49.61
14269;BME280;7218;51.480;7.006;2022-07-23T10:09:24;101241.63;;;26.76;49.53
14269;BME280;7218;51.480;7.006;2022-07-23T10:11:52;101238.19;;;26.86;50.08
14269;BME280;7218;51.480;7.006;2022-07-23T10:14:22;101243.97;;;26.80;47.51
14269;BME280;7218;51.480;7.006;2022-07-23T10:16:49;101238.75;;;27.15;48.61
14269;BME280;7218;51.480;7.006;2022-07-23T10:19:16;101238.03;;;27.13;46.63
14269;BME280;7218;51.480;7.006;2022-07-23T10:21:45;101239.63;;;27.16;48.10
14269;BME280;7218;51.480;7.006;2022-07-23T10:24:24;101249.72;;;27.12;46.26
14269;BME280;7218;51.480;7.006;2022-07-23T10:29:48;101242.59;;;27.24;45.78
14269;BME280;7218;51.480;7.006;2022-07-23T10:32:24;101236.22;;;27.37;47.26
14269;BME280;7218;51.480;7.006;2022-07-23T10:35:00;101238.75;;;27.52;44.95
14269;BME280;7218;51.480;7.006;2022-07-23T10:37:36;101241.81;;;27.34;44.72
14269;BME280;7218;51.480;7.006;2022-07-23T10:40:14;101237.69;;;28.00;48.17
14269;BME280;7218;51.480;7.006;2022-07-23T10:42:43;101241.34;;;28.23;45.09
14269;BME280;7218;51.480;7.006;2022-07-23T10:45:26;101237.13;;;28.76;43.99
14269;BME280;7218;51.480;7.006;2022-07-23T10:47:53;101234.66;;;28.95;43.61
14269;BME280;7218;51.480;7.006;2022-07-23T10:50:22;101229.84;;;29.21;42.77
14269;BME280;7218;51.480;7.006;2022-07-23T10:53:07;101229.28;;;28.95;41.96
14269;BME280;7218;51.480;7.006;2022-07-23T10:55:44;101232.13;;;28.83;42.48
14269;BME280;7218;51.480;7.006;2022-07-23T10:58:17;101235.13;;;28.34;43.06
14269;BME280;7218;51.480;7.006;2022-07-23T11:00:45;101237.97;;;28.77;42.18
14269;BME280;7218;51.480;7.006;2022-07-23T11:03:29;101233.66;;;29.07;40.51
14269;BME280;7218;51.480;7.006;2022-07-23T11:05:57;101236.38;;;28.85;39.86
14269;BME280;7218;51.480;7.006;2022-07-23T11:08:24;101246.28;;;28.74;41.58
14269;BME280;7218;51.480;7.006;2022-07-23T11:11:08;101234.06;;;28.58;42.39
14269;BME280;7218;51.480;7.006;2022-07-23T11:13:53;101233.47;;;28.88;41.40
14269;BME280;7218;51.480;7.006;2022-07-23T11:16:25;101238.31;;;28.94;39.48
14269;BME280;7218;51.480;7.006;2022-07-23T11:18:54;101234.91;;;29.03;39.19
14269;BME280;7218;51.480;7.006;2022-07-23T11:21:43;101232.03;;;29.27;40.48
14269;BME280;7218;51.480;7.006;2022-07-23T11:24:11;101229.44;;;29.48;43.80
14269;BME280;7218;51.480;7.006;2022-07-23T11:26:55;101227.56;;;29.80;39.98
14269;BME280;7218;51.480;7.006;2022-07-23T11:29:44;101233.91;;;29.59;41.51
14269;BME280;7218;51.480;7.006;2022-07-23T11:32:28;101233.78;;;29.92;39.07
14269;BME280;7218;51.480;7.006;2022-07-23T11:34:55;101238.75;;;30.38;39.39
14269;BME280;7218;51.480;7.006;2022-07-23T11:37:43;101228.31;;;30.75;39.33
14269;BME280;7218;51.480;7.006;2022-07-23T11:40:12;101236.41;;;29.71;36.96
14269;BME280;7218;51.480;7.006;2022-07-23T11:42:51;101231.91;;;30.55;40.30
14269;BME280;7218;51.480;7.006;2022-07-23T11:45:18;101230.91;;;30.96;38.54
14269;BME280;7218;51.480;7.006;2022-07-23T11:47:54;101226.44;;;31.06;36.24
14269;BME280;7218;51.480;7.006;2022-07-23T11:50:23;101227.13;;;31.57;37.53
14269;BME280;7218;51.480;7.006;2022-07-23T11:52:49;101228.78;;;31.87;35.40
14269;BME280;7218;51.480;7.006;2022-07-23T11:55:16;101230.19;;;32.01;34.58
14269;BME280;7218;51.480;7.006;2022-07-23T11:57:44;101241.09;;;32.28;35.46
14269;BME280;7218;51.480;7.006;2022-07-23T12:00:12;101237.56;;;31.99;33.52
14269;BME280;7218;51.480;7.006;2022-07-23T12:02:41;101241.53;;;30.88;34.66
14269;BME280;7218;51.480;7.006;2022-07-23T12:05:11;101235.47;;;32.12;37.09
14269;BME280;7218;51.480;7.006;2022-07-23T12:07:39;101235.38;;;32.87;33.42
14269;BME280;7218;51.480;7.006;2022-07-23T12:10:11;101229.28;;;32.29;32.82
14269;BME280;7218;51.480;7.006;2022-07-23T12:12:39;101235.69;;;32.75;33.08
14269;BME280;7218;51.480;7.006;2022-07-23T12:15:09;101234.97;;;32.82;31.90
14269;BME280;7218;51.480;7.006;2022-07-23T12:17:37;101223.25;;;33.90;33.65
14269;BME280;7218;51.480;7.006;2022-07-23T12:20:06;101225.03;;;33.81;33.11
14269;BME280;7218;51.480;7.006;2022-07-23T12:22:35;101221.22;;;33.39;31.30
14269;BME280;7218;51.480;7.006;2022-07-23T12:25:05;101221.81;;;33.42;33.26
14269;BME280;7218;51.480;7.006;2022-07-23T12:27:32;101221.81;;;34.21;31.77
14269;BME280;7218;51.480;7.006;2022-07-23T12:29:59;101227.59;;;34.26;30.85
14269;BME280;7218;51.480;7.006;2022-07-23T12:32:44;101225.44;;;34.38;30.81
14269;BME280;7218;51.480;7.006;2022-07-23T12:35:12;101223.94;;;34.69;30.14
14269;BME280;7218;51.480;7.006;2022-07-23T12:37:40;101226.97;;;35.00;29.07
14269;BME280;7218;51.480;7.006;2022-07-23T12:40:25;101232.16;;;34.51;29.48
14269;BME280;7218;51.480;7.006;2022-07-23T12:42:54;101228.59;;;34.51;31.18
14269;BME280;7218;51.480;7.006;2022-07-23T12:45:21;101232.44;;;34.48;29.25
14269;BME280;7218;51.480;7.006;2022-07-23T12:47:58;101226.03;;;34.75;31.02
14269;BME280;7218;51.480;7.006;2022-07-23T12:50:40;101224.16;;;34.76;30.14
14269;BME280;7218;51.480;7.006;2022-07-23T12:53:09;101235.25;;;34.98;30.69
14269;BME280;7218;51.480;7.006;2022-07-23T12:55:37;101240.03;;;34.37;28.67
14269;BME280;7218;51.480;7.006;2022-07-23T12:58:05;101243.78;;;34.70;29.28
14269;BME280;7218;51.480;7.006;2022-07-23T13:00:48;101238.06;;;34.81;30.09
14269;BME280;7218;51.480;7.006;2022-07-23T13:03:24;101235.63;;;35.86;29.24
14269;BME280;7218;51.480;7.006;2022-07-23T13:05:51;101240.34;;;36.08;27.86
14269;BME280;7218;51.480;7.006;2022-07-23T13:08:18;101237.66;;;35.76;26.78
14269;BME280;7218;51.480;7.006;2022-07-23T13:10:45;101241.88;;;35.78;28.06